Vn Rebel _ — ILBR — position and weather

sailwx.info

Track history (hours):
 
Tides and Currents Weather Stations Pressure Air Temp Water Temp Dewpoint Dewpoint Depression Visibility Wind Speed Wind Dir Waves Ship Positions

Vn Rebel _

Last reported at 2014-Dec-17 16:17 UTC. Time now 2014-Dec-19 21:05 UTC.
Position N 43°07' E 005°55'.

Length 45 m; draft 2.4 m.

MMSI: 247010300.

Date/timePositionNaut miles runAvg speedWind from/ knotsBaromVisibWave heightAir tempDewpointWater temp
2014-Dec-17 16:17N 43°07' E 005°55'1 1.3
2014-Dec-17 15:33N 43°07' E 005°54'0 0.0
2014-Dec-17 14:32N 43°07' E 005°54'0 0.2
2014-Dec-17 13:32N 43°07' E 005°54'1 0.4
2014-Dec-17 11:11N 43°07' E 005°55'1 1.5
2014-Dec-17 10:33N 43°07' E 005°54'0 0.0
2014-Dec-17 09:33N 43°07' E 005°54'0 0.0
2014-Dec-17 08:33N 43°07' E 005°54'0 0.0
2014-Dec-17 07:33N 43°07' E 005°54'1 0.0
2014-Dec-15 21:25N 43°07' E 005°55'0 0.0
2014-Dec-15 20:31N 43°07' E 005°55'0 0.0
2014-Dec-15 19:28N 43°07' E 005°55'  
2014-Dec-10 22:06N 43°07' E 005°55'2 4.0
2014-Dec-10 21:34N 43°05' E 005°57'9 9.1
2014-Dec-10 20:31N 42°60' E 006°08'10 9.2
2014-Dec-10 19:25N 42°57' E 006°21'910.0
2014-Dec-10 18:33N 42°56' E 006°33'10 9.6
2014-Dec-10 17:33N 42°55' E 006°46'10 9.6
2014-Dec-10 16:33N 42°54' E 006°59'9 9.0
2014-Dec-10 15:33N 42°52' E 007°11'8 2.0
2014-Dec-10 11:33N 42°59' E 007°16'3 2.7
2014-Dec-10 10:28N 42°57' E 007°18'1 0.9
2014-Dec-10 09:07N 42°56' E 007°17'4 6.5
2014-Dec-10 08:27N 42°52' E 007°15'5 1.3
2014-Dec-10 04:33N 42°49' E 007°10'7 7.4
2014-Dec-10 03:33N 42°49' E 006°60'8 7.7
2014-Dec-10 02:33N 42°51' E 006°50'8 7.6
2014-Dec-10 01:33N 42°53' E 006°40'15 0.9
2014-Dec-09 09:33N 43°04' E 006°26'17 5.2
2014-Dec-09 06:19N 43°01' E 006°04'7 9.0
2014-Dec-09 05:33N 43°05' E 005°57'22 1.6
2014-Dec-08 16:13N 43°04' E 006°26'20 5.4
2014-Dec-08 12:33N 43°01' E 006°53'8 7.4
2014-Dec-08 11:25N 42°55' E 007°01'5 5.8
2014-Dec-08 10:31N 42°54' E 007°08'1 1.3
2014-Dec-08 09:33N 42°54' E 007°06'5 4.0
2014-Dec-08 08:20N 42°54' E 006°59'5 6.6
2014-Dec-08 07:33N 42°58' E 007°04'0 0.4
2014-Dec-08 06:33N 42°58' E 007°04'3 3.2
2014-Dec-08 05:33N 42°58' E 006°59'7 7.0
2014-Dec-08 04:33N 42°58' E 006°50'7 6.7
2014-Dec-08 03:33N 42°59' E 006°41'8 6.6
2014-Dec-08 02:23N 42°58' E 006°30'16 8.6
2014-Dec-08 00:32N 42°60' E 006°08'9 9.5
2014-Dec-07 23:33N 43°05' E 005°58'  
Track history (hours):
 
Tides and Currents Weather Stations Pressure Air Temp Water Temp Dewpoint Dewpoint Depression Visibility Wind Speed Wind Dir Waves Ship Positions

Vn Rebel _

Last reported at 2014-Dec-17 16:17 UTC. Time now 2014-Dec-19 21:05 UTC.
Position N 43°07' E 005°55'.

Length 45 m; draft 2.4 m.

MMSI: 247010300.

Date/timePositionNaut miles runAvg speedWind from/ knotsBaromVisibWave heightAir tempDewpointWater temp
2014-Dec-17 16:17N 43°07' E 005°55'1 1.3
2014-Dec-17 15:33N 43°07' E 005°54'0 0.0
2014-Dec-17 14:32N 43°07' E 005°54'0 0.2
2014-Dec-17 13:32N 43°07' E 005°54'1 0.4
2014-Dec-17 11:11N 43°07' E 005°55'1 1.5
2014-Dec-17 10:33N 43°07' E 005°54'0 0.0
2014-Dec-17 09:33N 43°07' E 005°54'0 0.0
2014-Dec-17 08:33N 43°07' E 005°54'0 0.0
2014-Dec-17 07:33N 43°07' E 005°54'1 0.0
2014-Dec-15 21:25N 43°07' E 005°55'0 0.0
2014-Dec-15 20:31N 43°07' E 005°55'0 0.0
2014-Dec-15 19:28N 43°07' E 005°55'  
2014-Dec-10 22:06N 43°07' E 005°55'2 4.0
2014-Dec-10 21:34N 43°05' E 005°57'9 9.1
2014-Dec-10 20:31N 42°60' E 006°08'10 9.2
2014-Dec-10 19:25N 42°57' E 006°21'910.0
2014-Dec-10 18:33N 42°56' E 006°33'10 9.6
2014-Dec-10 17:33N 42°55' E 006°46'10 9.6
2014-Dec-10 16:33N 42°54' E 006°59'9 9.0
2014-Dec-10 15:33N 42°52' E 007°11'8 2.0
2014-Dec-10 11:33N 42°59' E 007°16'3 2.7
2014-Dec-10 10:28N 42°57' E 007°18'1 0.9
2014-Dec-10 09:07N 42°56' E 007°17'4 6.5
2014-Dec-10 08:27N 42°52' E 007°15'5 1.3
2014-Dec-10 04:33N 42°49' E 007°10'7 7.4
2014-Dec-10 03:33N 42°49' E 006°60'8 7.7
2014-Dec-10 02:33N 42°51' E 006°50'8 7.6
2014-Dec-10 01:33N 42°53' E 006°40'15 0.9
2014-Dec-09 09:33N 43°04' E 006°26'17 5.2
2014-Dec-09 06:19N 43°01' E 006°04'7 9.0
2014-Dec-09 05:33N 43°05' E 005°57'22 1.6
2014-Dec-08 16:13N 43°04' E 006°26'20 5.4
2014-Dec-08 12:33N 43°01' E 006°53'8 7.4
2014-Dec-08 11:25N 42°55' E 007°01'5 5.8
2014-Dec-08 10:31N 42°54' E 007°08'1 1.3
2014-Dec-08 09:33N 42°54' E 007°06'5 4.0
2014-Dec-08 08:20N 42°54' E 006°59'5 6.6
2014-Dec-08 07:33N 42°58' E 007°04'0 0.4
2014-Dec-08 06:33N 42°58' E 007°04'3 3.2
2014-Dec-08 05:33N 42°58' E 006°59'7 7.0
2014-Dec-08 04:33N 42°58' E 006°50'7 6.7
2014-Dec-08 03:33N 42°59' E 006°41'8 6.6
2014-Dec-08 02:23N 42°58' E 006°30'16 8.6
2014-Dec-08 00:32N 42°60' E 006°08'9 9.5
2014-Dec-07 23:33N 43°05' E 005°58'  

Dump ship's entire track history